createdAt,value
2019-02-19T00:03:01.724Z,8.27
2019-02-19T00:08:09.115Z,9.07
2019-02-19T00:13:15.517Z,7.77
2019-02-19T00:18:22.723Z,8.40
2019-02-19T00:23:30.218Z,8.30
2019-02-19T00:28:37.647Z,8.07
2019-02-19T00:33:46.597Z,8.67
2019-02-19T00:38:52.355Z,7.63
2019-02-19T00:43:59.690Z,8.77
2019-02-19T00:49:07.551Z,8.33
2019-02-19T00:54:13.862Z,8.80
2019-02-19T00:59:20.420Z,9.33
2019-02-19T01:04:27.572Z,7.87
2019-02-19T01:09:34.606Z,8.70
2019-02-19T01:14:40.787Z,8.20
2019-02-19T01:19:47.068Z,8.40
2019-02-19T01:24:53.353Z,9.20
2019-02-19T01:29:59.271Z,8.73
2019-02-19T01:35:05.910Z,9.77
2019-02-19T01:40:11.886Z,8.97
2019-02-19T01:45:17.731Z,9.70
2019-02-19T01:50:23.844Z,8.87
2019-02-19T01:55:52.212Z,7.30
2019-02-19T02:01:02.482Z,8.60
2019-02-19T02:06:09.792Z,7.80
2019-02-19T02:11:16.998Z,8.20
2019-02-19T04:28:01.462Z,6.63
2019-02-19T04:33:09.152Z,6.43
2019-02-19T04:38:17.674Z,7.27
2019-02-19T04:43:24.992Z,6.10
2019-02-19T04:48:32.492Z,5.97
2019-02-19T04:53:40.434Z,5.90
2019-02-19T04:58:47.383Z,5.70
2019-02-19T05:03:54.665Z,5.87
2019-02-19T05:09:01.993Z,5.77
2019-02-19T05:14:09.646Z,8.77
2019-02-19T05:19:15.870Z,7.03
2019-02-19T05:24:22.181Z,5.67
2019-02-19T05:29:30.060Z,6.77
2019-02-19T05:34:38.864Z,6.23
2019-02-19T05:39:45.184Z,6.40
2019-02-19T05:44:52.302Z,5.97
2019-02-19T05:50:00.139Z,6.33
2019-02-19T05:55:07.475Z,5.57
2019-02-19T06:00:14.425Z,5.43
2019-02-19T06:05:21.044Z,9.70
2019-02-19T06:10:27.727Z,7.43
2019-02-19T06:15:34.455Z,6.00
2019-02-19T06:20:41.717Z,6.23
2019-02-19T06:25:49.807Z,4.97
2019-02-19T06:30:56.008Z,6.13
2019-02-19T06:36:03.948Z,6.70
2019-02-19T06:41:10.258Z,5.07
2019-02-19T06:52:38.313Z,5.50
2019-02-19T06:57:45.291Z,7.23
2019-02-19T07:03:10.791Z,5.40
2019-02-19T07:08:16.868Z,5.90
2019-02-19T07:13:24.033Z,4.97
2019-02-19T07:18:32.186Z,6.10
2019-02-19T07:23:39.606Z,5.87
2019-02-19T07:28:56.712Z,6.83
2019-02-19T07:34:04.166Z,7.60
2019-02-19T07:39:13.071Z,6.83
2019-02-19T07:44:19.614Z,6.07
2019-02-19T07:49:27.002Z,10.37
2019-02-19T07:54:33.338Z,7.30
2019-02-19T07:59:41.453Z,6.17
2019-02-19T08:04:47.504Z,5.77
2019-02-19T08:09:55.225Z,5.47
2019-02-19T08:15:03.930Z,4.70
2019-02-19T08:20:15.959Z,4.00
2019-02-19T08:25:21.938Z,4.30
2019-02-19T08:30:27.907Z,4.13
2019-02-19T08:35:35.782Z,3.97
2019-02-19T08:40:42.035Z,3.97
2019-02-19T08:45:48.379Z,4.40
2019-02-19T08:50:54.221Z,4.10
2019-02-19T08:56:02.014Z,3.83
2019-02-19T09:01:09.083Z,4.60
2019-02-19T09:06:16.036Z,3.87
2019-02-19T09:11:23.016Z,4.60
2019-02-19T09:16:30.221Z,4.83
2019-02-19T09:21:37.236Z,6.07
2019-02-19T09:26:44.968Z,4.70
2019-02-19T09:31:51.690Z,4.97
2019-02-19T09:36:59.083Z,6.33
2019-02-19T09:42:06.643Z,5.97
2019-02-19T09:47:13.529Z,4.90
2019-02-19T09:52:19.396Z,5.73
2019-02-19T09:57:28.267Z,4.70
2019-02-19T10:02:36.425Z,4.73
2019-02-19T10:07:43.890Z,5.20
2019-02-19T10:12:51.191Z,2.87
2019-02-19T10:17:58.676Z,4.33
2019-02-19T10:23:06.042Z,3.07
2019-02-19T10:28:12.538Z,4.07
2019-02-19T10:33:20.705Z,4.03
2019-02-19T10:38:28.141Z,3.63
2019-02-19T10:43:36.462Z,3.50
2019-02-19T10:48:44.278Z,4.83
2019-02-19T10:53:53.016Z,3.70
2019-02-19T10:59:00.460Z,5.30
2019-02-19T11:04:08.748Z,4.70
2019-02-19T11:09:15.984Z,5.03
2019-02-19T11:14:26.957Z,4.10
2019-02-19T11:19:33.874Z,4.10
2019-02-19T11:24:41.522Z,4.67
2019-02-19T11:29:48.578Z,4.60
2019-02-19T11:34:55.789Z,4.37
2019-02-19T11:40:03.176Z,4.47
2019-02-19T11:45:11.502Z,4.67
2019-02-19T11:50:17.737Z,5.50
2019-02-19T11:55:23.734Z,4.75
2019-02-19T12:00:35.655Z,4.87
2019-02-19T12:05:43.375Z,5.10
2019-02-19T12:10:50.580Z,5.20
2019-02-19T12:15:56.413Z,5.92
2019-02-19T12:21:03.035Z,5.65
2019-02-19T12:26:09.396Z,6.03
2019-02-19T12:31:15.359Z,5.10
2019-02-19T12:36:23.137Z,6.20
2019-02-19T12:41:30.265Z,5.83
2019-02-19T12:46:37.899Z,5.92
2019-02-19T12:51:44.964Z,5.87
2019-02-19T12:56:52.604Z,6.92
2019-02-19T13:02:00.573Z,6.70
2019-02-19T13:07:07.885Z,6.83
2019-02-19T13:12:15.446Z,7.30
2019-02-19T13:17:23.268Z,6.67
2019-02-19T13:22:31.126Z,7.33
2019-02-19T13:27:37.158Z,7.25
2019-02-19T13:32:44.910Z,7.05
2019-02-19T13:37:51.441Z,7.55
2019-02-19T13:42:57.495Z,7.12
2019-02-19T13:48:05.831Z,7.05
2019-02-19T13:53:30.634Z,6.62
2019-02-19T13:58:38.148Z,6.75
2019-02-19T14:03:44.290Z,7.50
2019-02-19T14:08:53.160Z,6.85
2019-02-19T14:14:22.877Z,7.47
2019-02-19T14:19:45.219Z,7.12
2019-02-19T14:25:31.838Z,6.33
2019-02-19T14:30:56.016Z,5.17
2019-02-19T14:36:21.272Z,5.55
2019-02-19T14:41:46.270Z,6.15
2019-02-19T14:47:11.431Z,5.50
2019-02-19T14:52:38.708Z,4.80
2019-02-19T14:58:03.371Z,5.95
2019-02-19T15:03:41.909Z,6.42
2019-02-19T15:08:57.649Z,6.35
2019-02-19T15:14:44.838Z,7.53
2019-02-19T15:20:04.390Z,7.60
2019-02-19T15:25:32.243Z,6.87
2019-02-19T15:30:57.716Z,7.22
2019-02-19T15:36:29.119Z,7.05
2019-02-19T15:41:59.535Z,7.65
2019-02-19T15:47:23.838Z,7.55
2019-02-19T15:53:07.895Z,6.65
2019-02-19T15:58:35.703Z,7.17
2019-02-19T16:04:04.671Z,7.03
2019-02-19T16:09:26.956Z,6.83
2019-02-19T16:14:58.365Z,6.80
2019-02-19T16:20:27.774Z,7.17
2019-02-19T16:25:52.676Z,7.55
2019-02-19T16:31:15.412Z,7.72
2019-02-19T16:36:44.889Z,8.80
2019-02-19T16:42:12.781Z,8.13
2019-02-19T16:47:49.642Z,8.25
2019-02-19T16:53:21.334Z,8.30
2019-02-19T16:58:52.376Z,8.50
2019-02-19T17:04:09.526Z,8.13
2019-02-19T17:09:21.458Z,8.13
2019-02-19T17:14:50.937Z,8.10
2019-02-19T17:20:28.934Z,8.03
2019-02-19T17:25:45.448Z,7.85
2019-02-19T17:31:16.747Z,6.87
2019-02-19T17:36:47.729Z,7.60
2019-02-19T17:42:21.903Z,7.97
2019-02-19T17:47:36.932Z,7.10
2019-02-19T17:53:14.877Z,7.53
2019-02-19T17:58:31.623Z,7.30
2019-02-19T18:04:07.076Z,6.70
2019-02-19T18:09:31.381Z,7.67
2019-02-19T18:15:12.958Z,7.20
2019-02-19T18:20:20.800Z,7.30
2019-02-19T18:25:27.864Z,7.27
2019-02-19T18:30:35.605Z,7.70
2019-02-19T18:35:42.144Z,8.27
2019-02-19T18:40:48.254Z,7.33
2019-02-19T18:46:09.980Z,8.03
2019-02-19T18:51:18.177Z,7.40
2019-02-19T18:56:26.425Z,6.83
2019-02-19T19:01:33.885Z,6.30
2019-02-19T19:06:41.655Z,6.43
2019-02-19T19:11:49.627Z,6.30
2019-02-19T19:16:57.061Z,6.33
2019-02-19T19:22:03.397Z,6.30
2019-02-19T19:27:09.551Z,5.73
2019-02-19T19:32:16.065Z,7.07
2019-02-19T19:37:22.382Z,6.27
2019-02-19T19:42:28.590Z,5.90
2019-02-19T19:47:36.525Z,6.43
2019-02-19T19:52:44.173Z,7.53
2019-02-19T19:57:51.453Z,6.13
2019-02-19T20:02:58.426Z,5.97
2019-02-19T20:08:05.779Z,6.93
2019-02-19T20:13:12.903Z,6.80
2019-02-19T20:18:20.985Z,6.77
2019-02-19T20:23:28.662Z,6.40
2019-02-19T20:28:37.592Z,7.03
2019-02-19T20:33:47.125Z,6.43
2019-02-19T20:38:53.651Z,6.40
2019-02-19T20:43:59.799Z,7.17
2019-02-19T20:49:08.285Z,6.67
2019-02-19T20:54:15.387Z,7.03
2019-02-19T20:59:25.179Z,7.77
2019-02-19T21:04:31.485Z,6.80
2019-02-19T21:09:43.825Z,7.50
2019-02-19T21:14:45.697Z,7.37
2019-02-19T21:19:51.703Z,8.20
2019-02-19T21:24:58.227Z,8.43
2019-02-19T21:30:04.944Z,8.33
2019-02-19T21:35:11.342Z,8.20
2019-02-19T21:40:17.995Z,8.23
2019-02-19T21:45:24.173Z,8.90
2019-02-19T21:50:31.303Z,10.97
2019-02-19T21:55:39.898Z,9.30
2019-02-19T22:00:46.464Z,9.50
2019-02-19T22:05:53.365Z,10.07
2019-02-19T22:11:01.233Z,8.53
2019-02-19T22:16:07.746Z,9.37
2019-02-19T22:21:20.671Z,9.50
2019-02-19T22:26:29.162Z,8.77
2019-02-19T22:31:38.188Z,8.93
2019-02-19T22:36:44.022Z,9.40
2019-02-19T22:41:51.314Z,8.47
2019-02-19T22:46:58.902Z,8.97
2019-02-19T22:52:12.303Z,8.97
2019-02-19T22:57:12.543Z,8.17
2019-02-19T23:02:21.187Z,9.07
2019-02-19T23:07:28.295Z,9.33
2019-02-19T23:12:35.583Z,8.87
2019-02-19T23:17:42.004Z,9.23
2019-02-19T23:22:48.015Z,9.10
2019-02-19T23:27:53.711Z,8.67
2019-02-19T23:32:59.565Z,8.70
2019-02-19T23:38:05.312Z,8.43
2019-02-19T23:43:11.658Z,8.67
2019-02-19T23:48:17.724Z,9.57
2019-02-19T23:53:25.983Z,8.33
2019-02-19T23:58:32.815Z,8.80
